This is the latest recevied weather packets stored in our database for station/object DH0GMA. If no packets are shown the sender has not sent any weather packets the latest 10 day(s).
| Time | Temp. | Humidity | Pressure | Rain* | Wind** | Luminosity | Snow |
|---|---|---|---|---|---|---|---|
| 1777832105 | 20.56° C | 49% | 1011.4 hPa | 0 mm | - | - | - |
| 1777831505 | 20.56° C | 48% | 1011.2 hPa | 0 mm | - | - | - |
| 1777830905 | 21.11° C | 47% | 1011.2 hPa | 0 mm | - | - | - |
| 1777830305 | 21.67° C | 46% | 1011.4 hPa | 0 mm | - | - | - |
| 1777829704 | 21.67° C | 45% | 1011.4 hPa | 0 mm | - | - | - |
| 1777829104 | 22.22° C | 43% | 1011.6 hPa | 0 mm | - | - | - |
| 1777828504 | 22.22° C | 40% | 1011.4 hPa | 0 mm | - | - | - |
| 1777827904 | 22.78° C | 34% | 1011.2 hPa | 0 mm | - | - | - |
| 1777827304 | 23.33° C | 33% | 1011.3 hPa | 0 mm | - | - | - |
| 1777826704 | 23.89° C | 31% | 1011.2 hPa | 0 mm | - | - | - |
| 1777826104 | 24.44° C | 30% | 1011.2 hPa | 0 mm | - | - | - |
| 1777825504 | 25° C | 28% | 1011.3 hPa | 0 mm | - | - | - |
| 1777824903 | 25.56° C | 27% | 1011 hPa | 0 mm | - | - | - |
| 1777824303 | 25.56° C | 29% | 1011 hPa | 0 mm | - | - | - |
| 1777823703 | 25.56° C | 29% | 1011 hPa | 0 mm | - | - | - |
| 1777823103 | 26.67° C | 29% | 1010.9 hPa | 0 mm | - | - | - |
| 1777822503 | 26.67° C | 28% | 1011 hPa | 0 mm | - | - | - |
| 1777821903 | 26.67° C | 32% | 1011.2 hPa | 0 mm | - | - | - |
| 1777821305 | 26.11° C | 33% | 1011.2 hPa | 0 mm | - | - | - |
| 1777820705 | 26.67° C | 30% | 1011.2 hPa | 0 mm | - | - | - |
| 1777820105 | 26.67° C | 33% | 1011.3 hPa | 0 mm | - | - | - |
| 1777819504 | 26.11° C | 34% | 1011.4 hPa | 0 mm | - | - | - |
| 1777818904 | 25.56° C | 37% | 1011.4 hPa | 0 mm | - | - | - |
| 1777818304 | 25.56° C | 38% | 1011.5 hPa | 0 mm | - | - | - |
| 1777817704 | 25.56° C | 37% | 1011.5 hPa | 0 mm | - | - | - |
* Rain latest hour (hover to see other rain measurements)
** Current wind speed in m/s (hover to see current wind gust speed)